Latest Weather Observations for Scherger

IDQ60801

Issued at 6:32 pm EST Thursday 19 January 2017 (issued every 30 minutes, with the page automatically refreshed every 10 minutes)

About weather observations | Map of weather stations | Latest weather observations for QLD | Other Formats
Station Details ID: 027075 Name: SCHERGER RAAF Lat: -12.62 Lon: 142.09 Height: 39.34 m
Data from the previous 72 hours. | See also: Recent months at Scherger
Date/Time
EST
Temp
°C
App
Temp
°C
Dew
Point
°C
Rel
Hum
%
Delta-T
°C
Wind Press
QNH
hPa
Press
MSL
hPa
Rain since
9am
mm
Dir  Spd
km/h
Gust
km/h
Spd
kts
Gust
kts
19/06:30pm 27.7 32.2 23.7 79 2.8 SSW 6 11 3 6 1009.0 1008.7 0.2
19/06:00pm 27.6 33.4 24.0 81 2.5 CALM 0 0 0 0 1008.7 1008.4 0.2
19/05:30pm 26.8 32.1 23.1 80 2.5 CALM 0 0 0 0 1008.3 1008.0 0.2
19/05:00pm 27.9 30.9 21.9 70 4.0 WNW 9 22 5 12 1008.2 1007.9 0.2
19/04:30pm 29.7 32.8 22.9 67 4.7 SW 11 17 6 9 1007.9 1007.6 0.2
19/04:00pm 30.9 34.1 23.0 62 5.4 WSW 11 22 6 12 1007.3 1007.0 0.2
19/03:30pm 30.5 34.5 23.7 67 4.7 NW 9 20 5 11 1007.2 1006.9 0.2
19/03:00pm 30.5 33.0 23.2 65 5.0 SW 15 26 8 14 1008.1 1007.8 0.2
19/02:30pm 29.4 32.7 23.8 72 3.9 W 13 20 7 11 1008.6 1008.3 0.2
19/02:00pm 28.4 32.2 24.0 77 3.0 SW 11 19 6 10 1009.1 1008.8 0.2
19/01:30pm 27.1 29.6 23.1 79 2.7 SW 15 22 8 12 1009.4 1009.1 0.2
19/01:00pm 28.1 30.0 23.7 77 3.0 SW 20 30 11 16 1009.4 1009.1 0.2
19/12:30pm 32.6 36.9 22.7 56 6.8 WNW 4 9 2 5 1009.5 1009.2 0.2
19/12:00pm 31.8 36.2 22.8 59 6.2 SSW 4 9 2 5 1009.9 1009.6 0.2
19/11:30am 30.9 35.3 23.5 64 5.1 SSW 6 9 3 5 1010.3 1010.0 0.2
19/11:00am 31.6 36.5 23.7 63 5.5 E 4 9 2 5 1010.6 1010.3 0.2
19/10:30am 30.4 35.1 23.3 66 4.9 SSE 4 9 2 5 1011.0 1010.7 0.2
19/10:00am 29.5 33.3 23.4 69 4.2 SSE 9 13 5 7 1011.3 1011.0 0.2
19/09:30am 29.0 33.2 23.4 72 3.9 S 7 13 4 7 1011.6 1011.3 0.2
19/09:00am 28.6 33.8 23.5 74 3.5 S 2 9 1 5 1011.9 1011.6 16.0
19/08:30am 27.5 32.4 24.4 83 2.2 SE 6 9 3 5 1011.9 1011.6 16.0
19/08:00am 26.0 31.3 24.4 91 1.1 ESE 4 9 2 5 1011.8 1011.5 16.0
19/07:30am 24.9 30.9 24.2 96 0.5 CALM 0 6 0 3 1011.7 1011.4 16.0
19/07:00am 24.6 30.5 24.1 97 0.3 CALM 0 0 0 0 1011.4 1011.1 16.0
19/06:30am 24.3 29.9 23.6 96 0.5 CALM 0 0 0 0 1010.9 1010.6 16.0
19/06:00am 24.2 29.8 23.5 96 0.5 CALM 0 0 0 0 1010.5 1010.2 16.0
19/05:30am 24.4 30.1 23.7 96 0.5 CALM 0 0 0 0 1010.4 1010.1 16.0
19/05:00am 24.4 30.1 23.7 96 0.5 CALM 0 0 0 0 1010.1 1009.8 16.0
19/04:30am 24.3 29.9 23.6 96 0.5 CALM 0 0 0 0 1010.1 1009.8 16.0
19/04:00am 24.3 29.9 23.6 96 0.5 CALM 0 0 0 0 1009.9 1009.6 16.0
19/03:30am 24.4 30.1 23.7 96 0.5 CALM 0 0 0 0 1010.1 1009.8 16.0
19/03:00am 24.4 30.1 23.7 96 0.5 CALM 0 0 0 0 1010.4 1010.1 16.0
19/02:30am 24.4 30.1 23.7 96 0.5 CALM 0 0 0 0 1010.2 1009.9 16.0
19/02:00am 24.3 29.9 23.6 96 0.5 CALM 0 0 0 0 1010.1 1009.8 16.0
19/01:30am 24.3 29.9 23.6 96 0.5 CALM 0 0 0 0 1010.2 1009.9 16.0
19/01:00am 24.3 29.9 23.6 96 0.5 CALM 0 0 0 0 1010.5 1010.2 16.0
19/12:30am 24.4 30.1 23.7 96 0.5 CALM 0 0 0 0 1010.8 1010.5 16.0
19/12:00am 24.4 29.3 23.7 96 0.5 SSE 4 7 2 4 1011.2 1010.9 16.0
 
Date/Time
EST
Temp
°C
App
Temp
°C
Dew
Point
°C
Rel
Hum
%
Delta-T
°C
Wind Press
QNH
hPa
Press
MSL
hPa
Rain since
9am
mm
Dir  Spd
km/h
Gust
km/h
Spd
kts
Gust
kts
18/11:30pm 24.2 29.6 23.3 95 0.6 CALM 0 6 0 3 1011.5 1011.2 16.0
18/11:00pm 24.4 30.1 23.7 96 0.5 CALM 0 0 0 0 1011.7 1011.4 15.8
18/10:30pm 24.3 29.8 23.4 95 0.6 CALM 0 0 0 0 1011.7 1011.4 15.8
18/10:00pm 24.4 29.6 23.5 95 0.6 ENE 2 7 1 4 1011.9 1011.6 15.8
18/09:30pm 24.4 29.6 23.5 95 0.6 ENE 2 7 1 4 1011.6 1011.3 15.8
18/09:00pm 24.4 29.9 23.4 94 0.7 CALM 0 0 0 0 1011.3 1011.0 15.8
18/08:30pm 24.5 30.1 23.6 95 0.6 CALM 0 0 0 0 1011.1 1010.8 15.8
18/08:00pm 24.5 30.1 23.6 95 0.6 CALM 0 0 0 0 1011.0 1010.7 15.8
18/07:30pm 24.4 29.1 23.4 94 0.7 WSW 4 9 2 5 1011.0 1010.7 15.6
18/07:00pm 24.4 29.1 23.4 94 0.7 SW 4 7 2 4 1011.1 1010.8 15.0
18/06:30pm 24.4 29.9 23.4 94 0.7 CALM 0 0 0 0 1011.0 1010.7 14.6
18/06:00pm 24.4 29.1 23.4 94 0.7 SSW 4 9 2 5 1011.0 1010.7 13.8
18/05:30pm 24.6 28.9 23.6 94 0.7 SSE 7 13 4 7 1010.5 1010.2 12.0
18/05:00pm 24.7 30.4 23.7 94 0.7 CALM 0 6 0 3 1010.2 1009.9 10.0
18/04:30pm 24.6 30.0 23.2 92 0.9 CALM 0 7 0 4 1009.9 1009.6 9.6
18/04:00pm 24.8 28.4 23.0 90 1.2 SSE 9 17 5 9 1010.3 1010.0 5.8
18/03:30pm 26.5 29.2 22.8 80 2.5 E 13 20 7 11 1010.1 1009.8 0.2
18/03:00pm 29.0 33.0 22.7 69 4.3 WNW 6 9 3 5 1009.9 1009.6 0.2
18/02:30pm 29.1 33.2 23.3 71 4.0 NW 7 15 4 8 1009.7 1009.4 0.2
18/02:00pm 29.6 32.3 23.5 69 4.2 W 15 28 8 15 1010.0 1009.7 0.2
18/01:30pm 32.3 36.2 23.0 58 6.4 W 7 17 4 9 1009.9 1009.6 0.2
18/01:00pm 32.5 36.2 22.3 55 7.0 W 6 13 3 7 1010.4 1010.1 0.2
18/12:30pm 31.7 34.7 20.9 52 7.2 SW 6 17 3 9 1010.8 1010.5 0.2
18/12:00pm 30.9 35.4 23.0 62 5.4 SW 4 15 2 8 1011.6 1011.3 0.2
18/11:30am 30.4 35.7 24.3 70 4.3 WSW 4 9 2 5 1011.8 1011.5 0.2
18/11:00am 30.0 36.0 24.2 71 4.0 CALM 0 0 0 0 1012.4 1012.1 0.2
18/10:30am 29.2 35.5 24.7 77 3.1 CALM 0 0 0 0 1013.0 1012.7 0.2
18/10:00am 28.1 34.0 24.7 82 2.4 E 2 7 1 4 1013.2 1012.9 0.0
18/09:30am 27.3 33.5 24.6 85 1.9 CALM 0 0 0 0 1013.2 1012.9 0.0
18/09:00am 26.8 33.1 24.8 89 1.4 CALM 0 0 0 0 1013.2 1012.9 47.4
18/08:30am 26.2 32.5 24.8 92 1.0 CALM 0 0 0 0 1013.2 1012.9 47.4
18/08:00am 25.6 31.8 24.6 94 0.7 CALM 0 0 0 0 1012.9 1012.6 47.4
18/07:30am 25.1 31.1 24.2 95 0.6 CALM 0 0 0 0 1012.6 1012.3 47.4
18/07:00am 24.6 30.4 23.9 96 0.5 CALM 0 0 0 0 1012.4 1012.1 47.4
18/06:30am 24.2 29.8 23.5 96 0.5 CALM 0 0 0 0 1012.1 1011.8 47.4
18/06:00am 24.2 29.8 23.5 96 0.5 CALM 0 0 0 0 1011.6 1011.3 47.4
18/05:30am 24.3 29.9 23.6 96 0.5 CALM 0 0 0 0 1011.1 1010.8 47.4
18/05:00am 24.2 29.8 23.5 96 0.5 CALM 0 0 0 0 1010.9 1010.6 47.4
18/04:30am 24.4 30.0 23.5 95 0.6 CALM 0 0 0 0 1010.7 1010.4 47.4
18/04:00am 24.3 29.8 23.4 95 0.6 CALM 0 0 0 0 1010.4 1010.1 47.4
18/03:30am 24.4 30.0 23.5 95 0.6 CALM 0 0 0 0 1010.2 1009.9 47.4
18/03:00am 24.4 30.0 23.5 95 0.6 CALM 0 0 0 0 1010.1 1009.8 47.4
18/02:30am 24.3 29.8 23.4 95 0.6 CALM 0 0 0 0 1010.2 1009.9 47.4
18/02:00am 24.3 29.8 23.4 95 0.6 CALM 0 0 0 0 1010.5 1010.2 47.4
18/01:30am 24.3 29.8 23.4 95 0.6 CALM 0 6 0 3 1011.0 1010.7 47.4
18/01:00am 24.3 29.7 23.3 94 0.7 CALM 0 0 0 0 1011.4 1011.1 47.2
18/12:30am 24.4 29.5 23.4 94 0.7 ENE 2 7 1 4 1011.8 1011.5 47.0
18/12:00am 24.5 29.4 23.6 95 0.6 ENE 4 9 2 5 1012.0 1011.7 47.0
 
Date/Time
EST
Temp
°C
App
Temp
°C
Dew
Point
°C
Rel
Hum
%
Delta-T
°C
Wind Press
QNH
hPa
Press
MSL
hPa
Rain since
9am
mm
Dir  Spd
km/h
Gust
km/h
Spd
kts
Gust
kts
17/11:30pm 24.5 28.8 23.6 95 0.6 ENE 7 9 4 5 1012.1 1011.8 47.0
17/11:00pm 24.6 29.5 23.7 95 0.6 ENE 4 9 2 5 1012.5 1012.2 46.8
17/10:30pm 24.5 30.1 23.6 95 0.6 CALM 0 0 0 0 1012.6 1012.3 46.4
17/10:00pm 24.5 29.7 23.6 95 0.6 NNE 2 9 1 5 1012.5 1012.2 46.0
17/09:30pm 24.4 29.2 23.5 95 0.6 ENE 4 7 2 4 1012.4 1012.1 44.8
17/09:00pm 24.5 30.1 23.6 95 0.6 CALM 0 0 0 0 1012.2 1011.9 43.8
17/08:30pm 24.2 28.8 23.2 94 0.7 SW 4 9 2 5 1012.1 1011.8 42.4
17/08:00pm 24.2 28.5 23.3 95 0.6 SSW 6 13 3 7 1011.7 1011.4 41.4
17/07:30pm 24.0 27.2 23.0 94 0.7 ESE 11 19 6 10 1011.2 1010.9 40.0
17/07:00pm 24.2 26.2 23.0 93 0.8 SSE 17 28 9 15 1010.8 1010.5 32.8
17/06:30pm 25.3 27.5 23.2 88 1.4 ENE 17 24 9 13 1010.1 1009.8 14.4
17/06:16pm 27.0 28.2 21.5 72 3.7 N 17 30 9 16 1009.6 1009.3 2.2
17/06:00pm 32.2 35.9 23.2 59 6.2 NNW 9 15 5 8 1008.7 1008.4 0.2
17/05:30pm 33.0 36.7 23.3 56 6.7 N 9 17 5 9 1008.3 1008.0 0.2
17/05:00pm 33.1 37.2 21.6 51 7.8 SSW 2 7 1 4 1007.9 1007.6 0.2
17/04:30pm 32.9 37.1 21.7 51 7.6 S 2 6 1 3 1008.0 1007.7 0.2
17/04:00pm 33.3 36.6 21.5 50 8.0 S 6 9 3 5 1007.9 1007.6 0.2
17/03:30pm 33.3 36.1 20.8 48 8.4 SW 7 13 4 7 1008.1 1007.8 0.2
17/03:00pm 33.0 36.8 22.7 54 7.1 SSW 7 11 4 6 1008.4 1008.1 0.2
17/02:30pm 32.5 37.2 22.6 56 6.8 NW 2 7 1 4 1008.7 1008.4 0.2
17/02:00pm 31.8 36.8 23.9 63 5.5 SE 4 13 2 7 1009.1 1008.8 0.2
17/01:30pm 31.0 34.9 22.6 61 5.7 SSE 6 9 3 5 1009.6 1009.3 0.2
17/01:00pm 30.5 34.1 22.4 62 5.5 SSE 7 9 4 5 1010.0 1009.7 0.2
17/12:30pm 30.7 34.5 22.8 62 5.4 SSE 7 9 4 5 1010.5 1010.2 0.2
17/12:00pm 30.6 35.9 23.0 64 5.2 CALM 0 0 0 0 1010.8 1010.5 0.2
17/11:30am 30.4 35.7 23.1 65 5.0 CALM 0 0 0 0 1011.4 1011.1 0.2
17/11:00am 29.7 35.1 23.2 68 4.5 CALM 0 0 0 0 1011.9 1011.6 0.2
17/10:30am 29.2 33.5 23.6 72 3.9 NNE 7 11 4 6 1012.1 1011.8 0.2
17/10:00am 29.3 33.4 23.0 69 4.3 NE 6 9 3 5 1012.6 1012.3 0.2
17/09:30am 28.8 33.9 24.6 78 2.9 ENE 6 11 3 6 1012.7 1012.4 0.0
17/09:00am 27.2 32.1 24.3 84 2.0 ENE 6 9 3 5 1012.5 1012.2 -
17/08:30am 26.3 32.6 24.7 91 1.1 CALM 0 0 0 0 1012.5 1012.2 -
17/08:00am 25.2 31.0 24.0 93 0.8 CALM 0 0 0 0 1012.2 1011.9 -
17/07:30am 24.6 30.3 23.7 95 0.6 CALM 0 0 0 0 1011.8 1011.5 -
17/07:00am 24.1 29.5 23.2 95 0.6 CALM 0 0 0 0 1011.4 1011.1 -
17/06:30am 24.0 29.3 23.1 95 0.6 CALM 0 0 0 0 1010.9 1010.6 -
17/06:00am 24.3 29.8 23.4 95 0.6 CALM 0 0 0 0 1010.3 1010.0 -
17/05:30am 24.4 29.9 23.4 94 0.7 CALM 0 6 0 3 1009.9 1009.6 -
17/05:00am 24.8 29.5 23.9 95 0.6 N 6 9 3 5 1009.6 1009.3 -
17/04:30am 24.9 29.5 24.2 96 0.5 NW 7 11 4 6 1009.5 1009.2 -
17/04:00am 24.8 30.6 23.9 95 0.6 CALM 0 0 0 0 1009.5 1009.2 -
17/03:30am 24.8 30.6 23.9 95 0.6 CALM 0 0 0 0 1009.3 1009.0 -
17/03:00am 24.8 30.6 23.9 95 0.6 CALM 0 0 0 0 1009.3 1009.0 0.0
17/02:30am 24.9 30.7 23.9 94 0.7 CALM 0 0 0 0 1009.3 1009.0 -
17/02:00am 24.9 30.7 23.9 94 0.7 CALM 0 0 0 0 1009.3 1009.0 -
17/01:30am 25.0 30.8 24.0 94 0.7 CALM 0 0 0 0 1009.6 1009.3 -
17/01:00am 25.1 30.9 23.9 93 0.8 CALM 0 0 0 0 1009.7 1009.4 -
17/12:30am 25.2 31.0 24.0 93 0.8 CALM 0 0 0 0 1010.0 1009.7 -
17/12:00am 25.3 31.2 24.1 93 0.8 CALM 0 0 0 0 1010.1 1009.8 -
 
Date/Time
EST
Temp
°C
App
Temp
°C
Dew
Point
°C
Rel
Hum
%
Delta-T
°C
Wind Press
QNH
hPa
Press
MSL
hPa
Rain since
9am
mm
Dir  Spd
km/h
Gust
km/h
Spd
kts
Gust
kts
16/11:30pm 25.6 31.7 24.4 93 0.8 CALM 0 0 0 0 1010.3 1010.0 -
16/11:00pm 25.5 31.5 24.3 93 0.8 CALM 0 0 0 0 1010.3 1010.0 -
16/10:30pm 25.6 31.6 24.2 92 1.0 CALM 0 0 0 0 1010.1 1009.8 -
16/10:00pm 25.5 31.4 24.1 92 1.0 CALM 0 0 0 0 1010.0 1009.7 -
16/09:30pm 25.6 31.4 24.0 91 1.1 CALM 0 0 0 0 1010.0 1009.7 -
16/09:00pm 25.7 31.6 24.1 91 1.1 CALM 0 0 0 0 1009.6 1009.3 0.0
16/08:30pm 25.6 31.3 23.7 89 1.3 CALM 0 0 0 0 1009.4 1009.1 -
16/08:00pm 25.8 31.5 23.7 88 1.4 CALM 0 0 0 0 1009.3 1009.0 -
16/07:30pm 26.0 31.4 23.3 85 1.8 CALM 0 0 0 0 1008.9 1008.6 -
16/07:00pm 26.5 32.0 23.4 83 2.1 CALM 0 0 0 0 1008.6 1008.3 -

Other Formats:

Comma delimited format used in spreadsheet applications
http://www.bom.gov.au/fwo/IDQ60801/IDQ60801.94171.axf

JavaScript Object Notation format (JSON) in row-major order
http://www.bom.gov.au/fwo/IDQ60801/IDQ60801.94171.json